sensor_id;sensor_type;location;lat;lon;timestamp;pressure;altitude;pressure_sealevel;temperature;humidity
37068;BME280;22982;42.848;25.468;2022-08-03T00:02:22;96152.50;;;16.43;100.00
37068;BME280;22982;42.848;25.468;2022-08-03T00:07:24;96204.84;;;16.60;100.00
37068;BME280;22982;42.848;25.468;2022-08-03T00:12:26;96192.53;;;16.29;100.00
37068;BME280;22982;42.848;25.468;2022-08-03T00:17:28;96199.22;;;16.33;100.00
37068;BME280;22982;42.848;25.468;2022-08-03T00:22:51;96190.84;;;16.27;100.00
37068;BME280;22982;42.848;25.468;2022-08-03T00:27:53;96196.38;;;16.45;100.00
37068;BME280;22982;42.848;25.468;2022-08-03T00:32:56;96191.41;;;16.52;100.00
37068;BME280;22982;42.848;25.468;2022-08-03T00:38:00;96160.34;;;16.23;100.00
37068;BME280;22982;42.848;25.468;2022-08-03T00:43:04;96181.16;;;16.38;100.00
37068;BME280;22982;42.848;25.468;2022-08-03T00:48:09;96200.34;;;16.30;100.00
37068;BME280;22982;42.848;25.468;2022-08-03T00:53:33;96194.41;;;15.96;100.00
37068;BME280;22982;42.848;25.468;2022-08-03T00:58:36;96202.13;;;15.87;100.00
37068;BME280;22982;42.848;25.468;2022-08-03T01:03:39;96182.03;;;15.53;100.00
37068;BME280;22982;42.848;25.468;2022-08-03T01:08:51;96216.75;;;15.92;100.00
37068;BME280;22982;42.848;25.468;2022-08-03T01:14:23;96214.94;;;16.24;100.00
37068;BME280;22982;42.848;25.468;2022-08-03T01:25:14;96215.75;;;16.25;100.00
37068;BME280;22982;42.848;25.468;2022-08-03T01:30:23;96204.72;;;16.41;100.00
37068;BME280;22982;42.848;25.468;2022-08-03T01:35:51;96201.28;;;16.50;100.00
37068;BME280;22982;42.848;25.468;2022-08-03T01:40:56;96207.03;;;16.55;100.00
37068;BME280;22982;42.848;25.468;2022-08-03T01:45:59;96192.94;;;16.55;100.00
37068;BME280;22982;42.848;25.468;2022-08-03T01:51:05;96203.84;;;16.61;100.00
37068;BME280;22982;42.848;25.468;2022-08-03T01:56:09;96174.00;;;16.29;100.00
37068;BME280;22982;42.848;25.468;2022-08-03T02:01:14;96181.81;;;16.09;100.00
37068;BME280;22982;42.848;25.468;2022-08-03T02:06:19;96197.81;;;16.07;100.00
37068;BME280;22982;42.848;25.468;2022-08-03T02:11:42;96203.56;;;16.13;100.00
37068;BME280;22982;42.848;25.468;2022-08-03T02:16:47;96181.13;;;16.07;100.00
37068;BME280;22982;42.848;25.468;2022-08-03T02:21:50;96191.16;;;16.13;100.00
37068;BME280;22982;42.848;25.468;2022-08-03T02:27:04;96207.16;;;16.33;100.00
37068;BME280;22982;42.848;25.468;2022-08-03T02:32:11;96195.09;;;15.98;100.00
37068;BME280;22982;42.848;25.468;2022-08-03T02:37:18;96190.09;;;16.16;100.00
37068;BME280;22982;42.848;25.468;2022-08-03T02:42:21;96189.88;;;16.29;100.00
37068;BME280;22982;42.848;25.468;2022-08-03T02:47:27;96182.41;;;16.34;100.00
37068;BME280;22982;42.848;25.468;2022-08-03T02:52:51;96172.28;;;16.18;100.00
37068;BME280;22982;42.848;25.468;2022-08-03T02:57:55;96197.50;;;16.22;100.00
37068;BME280;22982;42.848;25.468;2022-08-03T03:03:03;96190.66;;;16.19;100.00
37068;BME280;22982;42.848;25.468;2022-08-03T03:08:09;96201.25;;;16.19;100.00
37068;BME280;22982;42.848;25.468;2022-08-03T03:13:21;96218.38;;;16.04;100.00
37068;BME280;22982;42.848;25.468;2022-08-03T03:18:27;96239.13;;;16.20;100.00
37068;BME280;22982;42.848;25.468;2022-08-03T03:23:31;96235.81;;;16.06;100.00
37068;BME280;22982;42.848;25.468;2022-08-03T03:28:36;96232.84;;;16.00;100.00
37068;BME280;22982;42.848;25.468;2022-08-03T03:33:39;96226.84;;;15.98;100.00
37068;BME280;22982;42.848;25.468;2022-08-03T03:38:41;96240.53;;;16.24;100.00
37068;BME280;22982;42.848;25.468;2022-08-03T03:43:44;96238.84;;;16.44;100.00
37068;BME280;22982;42.848;25.468;2022-08-03T03:48:50;96242.47;;;16.43;100.00
37068;BME280;22982;42.848;25.468;2022-08-03T03:54:00;96237.38;;;16.51;100.00
37068;BME280;22982;42.848;25.468;2022-08-03T03:59:03;96229.88;;;16.56;100.00
37068;BME280;22982;42.848;25.468;2022-08-03T04:04:05;96238.97;;;16.63;100.00
37068;BME280;22982;42.848;25.468;2022-08-03T04:09:26;96234.44;;;16.75;100.00
37068;BME280;22982;42.848;25.468;2022-08-03T04:14:47;96263.28;;;16.90;100.00
37068;BME280;22982;42.848;25.468;2022-08-03T04:19:52;96240.56;;;16.76;100.00
37068;BME280;22982;42.848;25.468;2022-08-03T04:25:06;96234.28;;;16.98;100.00
37068;BME280;22982;42.848;25.468;2022-08-03T04:30:10;96267.34;;;17.34;100.00
37068;BME280;22982;42.848;25.468;2022-08-03T04:35:13;96269.47;;;17.40;100.00
37068;BME280;22982;42.848;25.468;2022-08-03T04:40:24;96265.91;;;17.71;100.00
37068;BME280;22982;42.848;25.468;2022-08-03T04:45:31;96251.31;;;18.06;100.00
37068;BME280;22982;42.848;25.468;2022-08-03T04:50:34;96274.75;;;18.01;100.00
37068;BME280;22982;42.848;25.468;2022-08-03T04:55:39;96278.66;;;18.06;100.00
37068;BME280;22982;42.848;25.468;2022-08-03T05:00:42;96268.66;;;17.59;100.00
37068;BME280;22982;42.848;25.468;2022-08-03T05:05:54;96266.81;;;17.40;100.00
37068;BME280;22982;42.848;25.468;2022-08-03T05:11:11;96279.13;;;17.51;100.00
37068;BME280;22982;42.848;25.468;2022-08-03T05:16:13;96294.19;;;17.51;100.00
37068;BME280;22982;42.848;25.468;2022-08-03T05:21:16;96288.50;;;17.65;100.00
37068;BME280;22982;42.848;25.468;2022-08-03T05:26:18;96295.03;;;18.02;100.00
37068;BME280;22982;42.848;25.468;2022-08-03T05:31:20;96281.75;;;18.11;100.00
37068;BME280;22982;42.848;25.468;2022-08-03T05:36:23;96311.22;;;18.28;100.00
37068;BME280;22982;42.848;25.468;2022-08-03T05:41:25;96312.91;;;18.58;100.00
37068;BME280;22982;42.848;25.468;2022-08-03T05:46:38;96308.97;;;18.72;100.00
37068;BME280;22982;42.848;25.468;2022-08-03T05:51:40;96314.13;;;18.93;100.00
37068;BME280;22982;42.848;25.468;2022-08-03T05:56:42;96329.69;;;18.68;100.00
37068;BME280;22982;42.848;25.468;2022-08-03T06:01:44;96296.13;;;18.48;100.00
37068;BME280;22982;42.848;25.468;2022-08-03T06:06:49;96315.84;;;18.65;100.00
37068;BME280;22982;42.848;25.468;2022-08-03T06:11:51;96342.09;;;18.87;100.00
37068;BME280;22982;42.848;25.468;2022-08-03T06:16:53;96322.50;;;19.08;100.00
37068;BME280;22982;42.848;25.468;2022-08-03T06:22:15;96332.69;;;19.50;100.00
37068;BME280;22982;42.848;25.468;2022-08-03T06:27:18;96335.94;;;19.81;100.00
37068;BME280;22982;42.848;25.468;2022-08-03T06:32:59;96312.28;;;22.15;88.02
37068;BME280;22982;42.848;25.468;2022-08-03T06:38:17;96305.22;;;24.79;70.98
37068;BME280;22982;42.848;25.468;2022-08-03T06:43:20;96294.06;;;24.68;70.92
37068;BME280;22982;42.848;25.468;2022-08-03T06:48:22;96311.22;;;24.81;71.65
37068;BME280;22982;42.848;25.468;2022-08-03T06:53:24;96323.28;;;23.60;76.20
37068;BME280;22982;42.848;25.468;2022-08-03T06:58:26;96319.00;;;23.35;73.75
37068;BME280;22982;42.848;25.468;2022-08-03T07:03:29;96302.66;;;25.24;70.73
37068;BME280;22982;42.848;25.468;2022-08-03T07:08:31;96311.97;;;27.04;61.34
37068;BME280;22982;42.848;25.468;2022-08-03T07:13:35;96288.81;;;30.97;48.83
37068;BME280;22982;42.848;25.468;2022-08-03T07:18:41;96293.88;;;31.80;43.13
37068;BME280;22982;42.848;25.468;2022-08-03T07:23:43;96293.28;;;31.78;44.98
37068;BME280;22982;42.848;25.468;2022-08-03T07:28:45;96267.44;;;30.25;48.12
37068;BME280;22982;42.848;25.468;2022-08-03T07:33:48;96309.44;;;29.69;48.84
37068;BME280;22982;42.848;25.468;2022-08-03T07:38:50;96298.31;;;29.18;51.79
37068;BME280;22982;42.848;25.468;2022-08-03T07:43:52;96292.38;;;29.68;43.72
37068;BME280;22982;42.848;25.468;2022-08-03T07:48:54;96275.94;;;30.28;39.60
37068;BME280;22982;42.848;25.468;2022-08-03T07:53:57;96286.84;;;31.54;38.13
37068;BME280;22982;42.848;25.468;2022-08-03T07:59:00;96289.44;;;32.35;37.27
37068;BME280;22982;42.848;25.468;2022-08-03T08:04:03;96281.59;;;32.45;35.31
37068;BME280;22982;42.848;25.468;2022-08-03T08:09:06;96285.41;;;32.26;35.00
37068;BME280;22982;42.848;25.468;2022-08-03T08:14:08;96277.75;;;31.85;33.88
37068;BME280;22982;42.848;25.468;2022-08-03T08:19:10;96276.00;;;32.58;33.89
37068;BME280;22982;42.848;25.468;2022-08-03T08:24:13;96263.94;;;33.20;32.68
37068;BME280;22982;42.848;25.468;2022-08-03T08:29:21;96293.06;;;32.89;33.37
37068;BME280;22982;42.848;25.468;2022-08-03T08:34:24;96276.84;;;32.10;33.62
37068;BME280;22982;42.848;25.468;2022-08-03T08:39:26;96282.78;;;32.00;34.22
37068;BME280;22982;42.848;25.468;2022-08-03T08:44:30;96289.34;;;31.74;35.01
37068;BME280;22982;42.848;25.468;2022-08-03T08:49:34;96289.47;;;30.28;40.09
37068;BME280;22982;42.848;25.468;2022-08-03T08:54:40;96308.63;;;29.62;40.83
37068;BME280;22982;42.848;25.468;2022-08-03T08:59:43;96290.47;;;29.89;42.73
37068;BME280;22982;42.848;25.468;2022-08-03T09:04:51;96284.75;;;32.12;35.25
37068;BME280;22982;42.848;25.468;2022-08-03T09:09:54;96278.03;;;32.75;34.16
37068;BME280;22982;42.848;25.468;2022-08-03T09:20:32;96270.75;;;33.82;31.99
37068;BME280;22982;42.848;25.468;2022-08-03T09:25:40;96262.75;;;34.04;31.84
37068;BME280;22982;42.848;25.468;2022-08-03T09:30:44;96277.28;;;34.09;31.16
37068;BME280;22982;42.848;25.468;2022-08-03T09:35:58;96259.31;;;34.66;30.27
37068;BME280;22982;42.848;25.468;2022-08-03T09:41:00;96261.94;;;34.61;29.91
37068;BME280;22982;42.848;25.468;2022-08-03T09:46:03;96266.97;;;33.83;30.67
37068;BME280;22982;42.848;25.468;2022-08-03T09:51:08;96263.44;;;33.70;31.69
37068;BME280;22982;42.848;25.468;2022-08-03T09:56:57;96267.00;;;33.71;30.45
37068;BME280;22982;42.848;25.468;2022-08-03T10:01:59;96255.34;;;33.99;29.87
37068;BME280;22982;42.848;25.468;2022-08-03T10:07:09;96262.38;;;33.71;30.40
37068;BME280;22982;42.848;25.468;2022-08-03T10:12:12;96263.44;;;32.99;31.15
37068;BME280;22982;42.848;25.468;2022-08-03T10:17:15;96249.13;;;32.50;31.87
37068;BME280;22982;42.848;25.468;2022-08-03T10:22:24;96245.03;;;33.25;31.33
37068;BME280;22982;42.848;25.468;2022-08-03T10:27:33;96241.47;;;33.36;31.45
37068;BME280;22982;42.848;25.468;2022-08-03T10:32:45;96225.50;;;32.69;31.90
37068;BME280;22982;42.848;25.468;2022-08-03T10:38:01;96223.66;;;33.29;31.46
37068;BME280;22982;42.848;25.468;2022-08-03T10:43:19;96216.31;;;33.29;31.02
37068;BME280;22982;42.848;25.468;2022-08-03T10:48:22;96214.50;;;33.70;30.67
37068;BME280;22982;42.848;25.468;2022-08-03T10:53:38;96197.78;;;33.26;30.50
37068;BME280;22982;42.848;25.468;2022-08-03T10:58:53;96182.34;;;33.67;29.15
37068;BME280;22982;42.848;25.468;2022-08-03T11:14:20;96214.00;;;32.55;30.84
37068;BME280;22982;42.848;25.468;2022-08-03T11:19:42;96198.00;;;33.36;29.25
37068;BME280;22982;42.848;25.468;2022-08-03T11:24:59;96193.38;;;33.37;30.76
37068;BME280;22982;42.848;25.468;2022-08-03T11:30:07;96186.91;;;33.79;29.54
37068;BME280;22982;42.848;25.468;2022-08-03T11:36:10;96189.16;;;33.29;29.92
37068;BME280;22982;42.848;25.468;2022-08-03T11:40:48;96175.41;;;31.81;32.35
37068;BME280;22982;42.848;25.468;2022-08-03T11:45:59;96182.88;;;31.12;34.56
37068;BME280;22982;42.848;25.468;2022-08-03T11:51:03;96176.41;;;31.31;33.93
37068;BME280;22982;42.848;25.468;2022-08-03T11:56:06;96150.00;;;32.24;31.32
37068;BME280;22982;42.848;25.468;2022-08-03T12:01:13;96149.25;;;34.28;28.81
37068;BME280;22982;42.848;25.468;2022-08-03T12:06:23;96151.41;;;36.31;26.18
37068;BME280;22982;42.848;25.468;2022-08-03T12:11:28;96128.34;;;34.50;26.99
37068;BME280;22982;42.848;25.468;2022-08-03T12:21:48;96143.31;;;33.09;29.36
37068;BME280;22982;42.848;25.468;2022-08-03T12:26:58;96139.03;;;32.31;30.52
37068;BME280;22982;42.848;25.468;2022-08-03T12:32:01;96105.31;;;32.50;30.45
37068;BME280;22982;42.848;25.468;2022-08-03T12:37:03;96121.88;;;31.76;30.77
37068;BME280;22982;42.848;25.468;2022-08-03T12:42:33;96137.53;;;31.74;31.77
37068;BME280;22982;42.848;25.468;2022-08-03T12:47:53;96112.16;;;31.57;31.67
37068;BME280;22982;42.848;25.468;2022-08-03T12:52:57;96129.28;;;30.51;32.88
37068;BME280;22982;42.848;25.468;2022-08-03T12:58:04;96132.41;;;30.23;32.89
37068;BME280;22982;42.848;25.468;2022-08-03T13:09:28;96110.28;;;30.33;32.33
37068;BME280;22982;42.848;25.468;2022-08-03T13:14:36;96119.34;;;30.70;32.91
37068;BME280;22982;42.848;25.468;2022-08-03T13:19:41;96138.13;;;30.40;33.82
37068;BME280;22982;42.848;25.468;2022-08-03T13:24:46;96132.84;;;30.20;33.91
37068;BME280;22982;42.848;25.468;2022-08-03T13:29:52;96081.00;;;30.05;33.76
37068;BME280;22982;42.848;25.468;2022-08-03T13:34:58;96107.78;;;30.06;33.59
37068;BME280;22982;42.848;25.468;2022-08-03T13:40:05;96120.47;;;30.06;33.73
37068;BME280;22982;42.848;25.468;2022-08-03T13:45:12;96071.03;;;29.99;33.07
37068;BME280;22982;42.848;25.468;2022-08-03T13:50:15;96091.84;;;30.23;33.50
37068;BME280;22982;42.848;25.468;2022-08-03T13:55:20;96095.47;;;30.61;32.25
37068;BME280;22982;42.848;25.468;2022-08-03T14:00:22;96079.81;;;30.44;31.00
37068;BME280;22982;42.848;25.468;2022-08-03T14:05:34;96077.16;;;30.63;30.69
37068;BME280;22982;42.848;25.468;2022-08-03T14:10:39;96045.94;;;30.42;31.30
37068;BME280;22982;42.848;25.468;2022-08-03T14:15:47;96052.94;;;30.49;32.76
37068;BME280;22982;42.848;25.468;2022-08-03T14:20:56;96081.59;;;30.07;33.86
37068;BME280;22982;42.848;25.468;2022-08-03T14:26:06;96109.84;;;30.11;34.20
37068;BME280;22982;42.848;25.468;2022-08-03T14:31:12;96093.41;;;29.74;33.74
37068;BME280;22982;42.848;25.468;2022-08-03T14:36:34;96117.00;;;29.15;34.77
37068;BME280;22982;42.848;25.468;2022-08-03T14:41:37;96093.63;;;28.82;35.41
37068;BME280;22982;42.848;25.468;2022-08-03T14:46:39;96093.03;;;28.67;37.15
37068;BME280;22982;42.848;25.468;2022-08-03T14:51:41;96106.84;;;28.97;36.24
37068;BME280;22982;42.848;25.468;2022-08-03T14:56:54;96084.59;;;29.15;35.24
37068;BME280;22982;42.848;25.468;2022-08-03T15:01:57;96081.69;;;29.10;34.19
37068;BME280;22982;42.848;25.468;2022-08-03T15:07:09;96076.50;;;29.08;34.85
37068;BME280;22982;42.848;25.468;2022-08-03T15:12:12;96079.91;;;28.83;34.85
37068;BME280;22982;42.848;25.468;2022-08-03T15:17:14;96090.97;;;28.55;36.36
37068;BME280;22982;42.848;25.468;2022-08-03T15:22:17;96079.13;;;28.50;36.62
37068;BME280;22982;42.848;25.468;2022-08-03T15:27:26;96087.84;;;28.65;36.70
37068;BME280;22982;42.848;25.468;2022-08-03T15:32:32;96077.94;;;28.19;37.92
37068;BME280;22982;42.848;25.468;2022-08-03T15:37:34;96093.00;;;27.86;42.27
37068;BME280;22982;42.848;25.468;2022-08-03T15:42:36;96088.84;;;27.84;43.46
37068;BME280;22982;42.848;25.468;2022-08-03T15:47:39;96067.63;;;27.41;40.10
37068;BME280;22982;42.848;25.468;2022-08-03T15:52:41;96070.97;;;27.36;41.86
37068;BME280;22982;42.848;25.468;2022-08-03T15:57:43;96073.69;;;27.56;40.26
37068;BME280;22982;42.848;25.468;2022-08-03T16:03:08;96062.50;;;27.66;40.53
37068;BME280;22982;42.848;25.468;2022-08-03T16:08:11;96065.06;;;27.94;39.61
37068;BME280;22982;42.848;25.468;2022-08-03T16:13:15;96072.44;;;27.52;41.04
37068;BME280;22982;42.848;25.468;2022-08-03T16:18:18;96064.09;;;27.34;42.56
37068;BME280;22982;42.848;25.468;2022-08-03T16:23:20;96057.50;;;26.88;42.71
37068;BME280;22982;42.848;25.468;2022-08-03T16:28:22;96069.50;;;26.85;44.58
37068;BME280;22982;42.848;25.468;2022-08-03T16:33:27;96056.06;;;26.92;45.39
37068;BME280;22982;42.848;25.468;2022-08-03T16:38:35;96053.31;;;26.79;47.54
37068;BME280;22982;42.848;25.468;2022-08-03T16:43:37;96068.00;;;26.76;51.98
37068;BME280;22982;42.848;25.468;2022-08-03T16:48:58;96107.28;;;26.70;52.29
37068;BME280;22982;42.848;25.468;2022-08-03T16:54:00;96090.91;;;26.37;52.81
37068;BME280;22982;42.848;25.468;2022-08-03T16:59:09;96084.59;;;25.95;53.82
37068;BME280;22982;42.848;25.468;2022-08-03T17:04:12;96121.63;;;25.63;54.84
37068;BME280;22982;42.848;25.468;2022-08-03T17:09:16;96126.91;;;25.05;59.68
37068;BME280;22982;42.848;25.468;2022-08-03T17:14:22;96128.50;;;24.55;63.90
37068;BME280;22982;42.848;25.468;2022-08-03T17:19:31;96145.53;;;24.01;65.35
37068;BME280;22982;42.848;25.468;2022-08-03T17:24:37;96118.25;;;23.51;68.38
37068;BME280;22982;42.848;25.468;2022-08-03T17:29:46;96114.25;;;23.24;69.24
37068;BME280;22982;42.848;25.468;2022-08-03T17:34:49;96125.09;;;22.74;68.46
37068;BME280;22982;42.848;25.468;2022-08-03T17:39:53;96152.09;;;22.32;76.58
37068;BME280;22982;42.848;25.468;2022-08-03T17:45:00;96169.94;;;22.07;74.74
37068;BME280;22982;42.848;25.468;2022-08-03T17:50:07;96151.88;;;21.68;75.43
37068;BME280;22982;42.848;25.468;2022-08-03T17:55:27;96173.09;;;21.27;78.55
37068;BME280;22982;42.848;25.468;2022-08-03T18:00:56;96160.38;;;21.12;77.13
37068;BME280;22982;42.848;25.468;2022-08-03T18:06:38;96196.00;;;21.03;79.18
37068;BME280;22982;42.848;25.468;2022-08-03T18:11:58;96171.31;;;20.49;81.38
37068;BME280;22982;42.848;25.468;2022-08-03T18:17:07;96159.47;;;20.17;72.40
37068;BME280;22982;42.848;25.468;2022-08-03T18:22:12;96192.84;;;20.29;71.21
37068;BME280;22982;42.848;25.468;2022-08-03T18:27:20;96223.56;;;20.23;72.81
37068;BME280;22982;42.848;25.468;2022-08-03T18:32:25;96219.03;;;19.98;78.33
37068;BME280;22982;42.848;25.468;2022-08-03T18:37:33;96235.06;;;19.88;75.09
37068;BME280;22982;42.848;25.468;2022-08-03T18:42:53;96201.88;;;19.64;73.15
37068;BME280;22982;42.848;25.468;2022-08-03T18:48:18;96236.38;;;19.56;74.63
37068;BME280;22982;42.848;25.468;2022-08-03T18:59:03;96252.91;;;19.22;76.21
37068;BME280;22982;42.848;25.468;2022-08-03T19:09:46;96266.22;;;18.46;81.30
37068;BME280;22982;42.848;25.468;2022-08-03T19:14:54;96256.75;;;18.04;83.69
37068;BME280;22982;42.848;25.468;2022-08-03T19:19:59;96254.94;;;17.95;84.39
37068;BME280;22982;42.848;25.468;2022-08-03T19:25:05;96252.09;;;17.67;86.47
37068;BME280;22982;42.848;25.468;2022-08-03T19:30:14;96265.47;;;17.75;86.18
37068;BME280;22982;42.848;25.468;2022-08-03T19:35:42;96271.63;;;17.66;85.62
37068;BME280;22982;42.848;25.468;2022-08-03T19:41:02;96276.59;;;17.40;87.54
37068;BME280;22982;42.848;25.468;2022-08-03T19:46:11;96283.66;;;17.30;88.45
37068;BME280;22982;42.848;25.468;2022-08-03T19:51:18;96282.31;;;17.14;88.32
37068;BME280;22982;42.848;25.468;2022-08-03T19:56:46;96299.38;;;17.21;87.48
37068;BME280;22982;42.848;25.468;2022-08-03T20:01:53;96240.72;;;16.95;88.26
37068;BME280;22982;42.848;25.468;2022-08-03T20:06:57;96290.81;;;17.08;87.96
37068;BME280;22982;42.848;25.468;2022-08-03T20:12:02;96318.84;;;17.11;87.37
37068;BME280;22982;42.848;25.468;2022-08-03T20:17:06;96263.88;;;17.03;86.13
37068;BME280;22982;42.848;25.468;2022-08-03T20:22:12;96297.59;;;16.80;89.28
37068;BME280;22982;42.848;25.468;2022-08-03T20:27:22;96266.84;;;16.25;90.55
37068;BME280;22982;42.848;25.468;2022-08-03T20:32:33;96289.41;;;16.62;91.01
37068;BME280;22982;42.848;25.468;2022-08-03T20:37:36;96261.09;;;16.20;91.02
37068;BME280;22982;42.848;25.468;2022-08-03T20:42:38;96295.97;;;16.25;90.49
37068;BME280;22982;42.848;25.468;2022-08-03T20:47:41;96283.84;;;16.44;91.90
37068;BME280;22982;42.848;25.468;2022-08-03T20:52:52;96260.34;;;16.30;90.45
37068;BME280;22982;42.848;25.468;2022-08-03T20:57:59;96258.88;;;15.72;93.22
37068;BME280;22982;42.848;25.468;2022-08-03T21:03:04;96284.59;;;15.70;94.46
37068;BME280;22982;42.848;25.468;2022-08-03T21:08:11;96264.66;;;15.66;95.79
37068;BME280;22982;42.848;25.468;2022-08-03T21:13:31;96283.72;;;16.24;93.93
37068;BME280;22982;42.848;25.468;2022-08-03T21:18:58;96311.94;;;16.35;91.29
37068;BME280;22982;42.848;25.468;2022-08-03T21:24:03;96317.69;;;16.08;91.23
37068;BME280;22982;42.848;25.468;2022-08-03T21:29:07;96318.34;;;16.54;92.00
37068;BME280;22982;42.848;25.468;2022-08-03T21:34:14;96314.16;;;16.93;86.70
37068;BME280;22982;42.848;25.468;2022-08-03T21:39:18;96295.66;;;16.19;90.42
37068;BME280;22982;42.848;25.468;2022-08-03T21:44:20;96309.16;;;16.04;91.56
37068;BME280;22982;42.848;25.468;2022-08-03T21:49:31;96301.41;;;15.69;93.40
37068;BME280;22982;42.848;25.468;2022-08-03T21:54:55;96314.78;;;15.45;94.24
37068;BME280;22982;42.848;25.468;2022-08-03T22:00:11;96328.09;;;14.98;97.92
37068;BME280;22982;42.848;25.468;2022-08-03T22:05:15;96293.75;;;14.87;98.47
37068;BME280;22982;42.848;25.468;2022-08-03T22:10:30;96310.59;;;15.20;97.74
37068;BME280;22982;42.848;25.468;2022-08-03T22:15:32;96311.53;;;15.07;97.96
37068;BME280;22982;42.848;25.468;2022-08-03T22:20:34;96319.31;;;15.43;97.09
37068;BME280;22982;42.848;25.468;2022-08-03T22:25:38;96325.34;;;15.22;96.11
37068;BME280;22982;42.848;25.468;2022-08-03T22:30:41;96312.44;;;14.61;99.42
37068;BME280;22982;42.848;25.468;2022-08-03T22:35:48;96306.72;;;14.67;99.04
37068;BME280;22982;42.848;25.468;2022-08-03T22:40:51;96326.88;;;14.80;99.93
37068;BME280;22982;42.848;25.468;2022-08-03T22:45:55;96322.56;;;15.01;98.71
37068;BME280;22982;42.848;25.468;2022-08-03T22:51:14;96313.44;;;14.83;98.34
37068;BME280;22982;42.848;25.468;2022-08-03T22:56:17;96283.56;;;14.82;96.69
37068;BME280;22982;42.848;25.468;2022-08-03T23:01:22;96308.75;;;14.98;97.44
37068;BME280;22982;42.848;25.468;2022-08-03T23:06:31;96310.75;;;14.60;100.00
37068;BME280;22982;42.848;25.468;2022-08-03T23:11:40;96318.97;;;14.91;100.00
37068;BME280;22982;42.848;25.468;2022-08-03T23:16:49;96318.50;;;14.97;100.00
37068;BME280;22982;42.848;25.468;2022-08-03T23:21:56;96308.16;;;14.83;99.59
37068;BME280;22982;42.848;25.468;2022-08-03T23:27:06;96322.66;;;14.66;100.00
37068;BME280;22982;42.848;25.468;2022-08-03T23:32:09;96330.19;;;14.59;100.00
37068;BME280;22982;42.848;25.468;2022-08-03T23:37:13;96325.34;;;14.53;100.00
37068;BME280;22982;42.848;25.468;2022-08-03T23:42:19;96328.38;;;14.60;100.00
37068;BME280;22982;42.848;25.468;2022-08-03T23:47:23;96346.00;;;14.59;100.00
37068;BME280;22982;42.848;25.468;2022-08-03T23:52:56;96345.44;;;14.43;100.00
37068;BME280;22982;42.848;25.468;2022-08-03T23:58:09;96352.59;;;14.29;100.00
